Main page
METAR-TAF:

METAR-TAF

Airports :

Mihail Kogălniceanu International Airport

Constanţa, Romania

latitude: 44-20N, longitude: 028-26E, elevation: 97 m

Current weather observation

The report was made 37 minutes ago, at 20:00 UTC
Wind 4 kt from the West
Temperature 6°C
Humidity 93%
Pressure 1027 hPa
Visibility 10 km or more
no clouds below 1500 m and no cumulonimbus

METAR: LRCK 282000Z 27004KT CAVOK 06/05 Q1027 NOSIG

Time: 23:37 (20:37 UTC)

Forecast

The report was made 3 hours and 37 minutes ago, at 17:00 UTC
Forecast valid from 28 at 18 UTC to 29 at 18 UTC
Wind 3 kt from variable directions
Visibility 10 km or more
no clouds below 1500 m and no cumulonimbus
Temporary
from 28 at 23 UTC to 29 at 05 UTC
Visibility: 3000 m
mist
Becoming
from 29 at 07 UTC to 29 at 09 UTC
Wind 10 kt from the East/Northeast

TAF: LRCK 281700Z 2818/2918 VRB03KT CAVOK TEMPO 2823/2905 3000 BR BECMG 2907/2909 07010KT

Weather observations and forecasts of more than 4000 airports (METAR and TAF reports).

The available stations are represented by yellow and red dots on the map.

Hover mouse over dot to see the name of the station.

Then click to see weather observations and forecasts.

To change the map : click on the green buttons with a black cross to zoom in, on the green button with a dash to zoom out, or on the green arrows for adjacent maps.


METAR-TAF: